createdAt,value
2019-03-25T00:01:49.388Z,61.86
2019-03-25T00:04:23.249Z,62.23
2019-03-25T00:06:57.769Z,62.57
2019-03-25T00:09:31.629Z,62.76
2019-03-25T00:12:08.047Z,63.24
2019-03-25T00:14:42.905Z,63.80
2019-03-25T00:17:16.770Z,64.05
2019-03-25T00:19:51.667Z,64.00
2019-03-25T00:22:25.655Z,64.38
2019-03-25T00:24:59.415Z,64.81
2019-03-25T00:27:33.651Z,64.79
2019-03-25T00:30:09.880Z,64.54
2019-03-25T00:32:46.185Z,65.00
2019-03-25T00:35:20.026Z,65.36
2019-03-25T00:37:54.010Z,65.07
2019-03-25T00:40:27.888Z,65.31
2019-03-25T00:43:01.760Z,65.41
2019-03-25T00:45:35.706Z,64.99
2019-03-25T00:48:09.594Z,64.79
2019-03-25T00:50:43.444Z,64.93
2019-03-25T00:53:17.363Z,64.85
2019-03-25T00:55:51.258Z,64.79
2019-03-25T00:58:25.010Z,64.92
2019-03-25T01:00:58.765Z,64.88
2019-03-25T01:03:33.213Z,64.81
2019-03-25T01:06:09.187Z,64.68
2019-03-25T01:08:43.234Z,64.76
2019-03-25T01:11:18.594Z,64.70
2019-03-25T01:13:56.016Z,64.64
2019-03-25T01:16:30.055Z,64.86
2019-03-25T01:19:03.896Z,66.16
2019-03-25T01:21:38.119Z,66.71
2019-03-25T01:24:12.407Z,67.14
2019-03-25T01:26:47.324Z,67.17
2019-03-25T01:29:21.662Z,67.18
2019-03-25T01:31:55.464Z,67.28
2019-03-25T01:34:29.273Z,67.32
2019-03-25T01:37:02.963Z,67.24
2019-03-25T01:39:36.674Z,67.11
2019-03-25T01:42:12.694Z,66.87
2019-03-25T01:44:47.169Z,66.72
2019-03-25T01:47:20.926Z,66.50
2019-03-25T01:49:54.681Z,66.43
2019-03-25T01:52:28.457Z,65.67
2019-03-25T01:55:13.081Z,65.21
2019-03-25T01:57:37.640Z,65.22
2019-03-25T02:00:12.847Z,64.88
2019-03-25T02:02:48.519Z,64.69
2019-03-25T02:05:22.371Z,64.41
2019-03-25T02:07:56.203Z,64.46
2019-03-25T02:10:29.925Z,64.77
2019-03-25T02:13:03.763Z,65.04
2019-03-25T02:15:38.440Z,65.23
2019-03-25T02:18:13.297Z,65.26
2019-03-25T02:20:47.165Z,65.18
2019-03-25T02:23:22.052Z,65.29
2019-03-25T02:25:55.966Z,65.34
2019-03-25T02:28:30.131Z,65.41
2019-03-25T02:31:05.959Z,65.54
2019-03-25T02:33:39.899Z,65.84
2019-03-25T02:36:13.872Z,65.49
2019-03-25T02:38:47.767Z,65.89
2019-03-25T02:41:22.646Z,65.93
2019-03-25T02:43:56.315Z,66.05
2019-03-25T02:46:30.031Z,66.05
2019-03-25T02:49:04.028Z,65.90
2019-03-25T02:51:37.823Z,65.96
2019-03-25T02:54:11.988Z,65.73
2019-03-25T02:56:45.815Z,65.99
2019-03-25T02:59:20.527Z,66.10
2019-03-25T03:01:54.253Z,66.45
2019-03-25T03:04:30.851Z,66.56
2019-03-25T03:07:04.624Z,66.71
2019-03-25T03:09:40.569Z,66.86
2019-03-25T03:12:15.450Z,66.73
2019-03-25T03:14:53.520Z,67.04
2019-03-25T03:17:27.509Z,66.88
2019-03-25T03:20:02.358Z,66.91
2019-03-25T03:22:36.530Z,66.85
2019-03-25T03:25:13.882Z,67.11
2019-03-25T03:27:47.901Z,67.10
2019-03-25T03:30:26.335Z,67.45
2019-03-25T03:33:00.226Z,67.62
2019-03-25T03:35:34.320Z,67.58
2019-03-25T03:38:08.293Z,67.73
2019-03-25T03:40:42.031Z,67.85
2019-03-25T03:43:15.983Z,68.20
2019-03-25T03:45:49.848Z,68.50
2019-03-25T03:48:24.979Z,68.56
2019-03-25T03:51:00.390Z,68.47
2019-03-25T03:53:35.167Z,68.43
2019-03-25T03:56:13.563Z,68.17
2019-03-25T03:58:46.143Z,68.35
2019-03-25T04:01:20.036Z,68.36
2019-03-25T04:03:53.881Z,68.44
2019-03-25T04:06:27.908Z,68.57
2019-03-25T04:09:01.834Z,68.39
2019-03-25T04:11:36.708Z,68.12
2019-03-25T04:14:10.399Z,68.42
2019-03-25T04:16:45.068Z,68.27
2019-03-25T04:19:21.207Z,68.43
2019-03-25T04:21:57.106Z,68.53
2019-03-25T04:24:33.068Z,68.61
2019-03-25T04:27:06.752Z,68.40
2019-03-25T04:29:40.429Z,68.15
2019-03-25T04:32:14.560Z,68.25
2019-03-25T04:34:48.444Z,68.64
2019-03-25T04:37:22.179Z,68.62
2019-03-25T04:39:55.862Z,68.62
2019-03-25T04:42:29.644Z,68.79
2019-03-25T04:45:03.438Z,68.90
2019-03-25T04:47:37.191Z,68.98
2019-03-25T04:50:10.999Z,68.72
2019-03-25T04:52:44.738Z,68.62
2019-03-25T04:55:18.914Z,69.34
2019-03-25T04:57:52.717Z,69.78
2019-03-25T05:00:37.721Z,69.81
2019-03-25T05:03:13.181Z,69.37
2019-03-25T05:05:46.896Z,69.00
2019-03-25T05:08:20.537Z,68.74
2019-03-25T05:10:54.260Z,68.52
2019-03-25T05:13:27.797Z,68.18
2019-03-25T05:16:01.335Z,67.89
2019-03-25T05:18:36.138Z,67.76
2019-03-25T05:21:09.973Z,67.49
2019-03-25T05:23:44.868Z,67.68
2019-03-25T05:26:23.177Z,67.59
2019-03-25T05:28:57.626Z,67.54
2019-03-25T05:31:32.735Z,67.53
2019-03-25T05:34:20.511Z,67.59
2019-03-25T05:36:47.810Z,67.60
2019-03-25T05:39:23.214Z,67.67
2019-03-25T05:42:13.306Z,67.44
2019-03-25T05:44:53.156Z,67.89
2019-03-25T05:47:26.848Z,67.83
2019-03-25T05:50:02.639Z,67.43
2019-03-25T05:52:36.412Z,67.38
2019-03-25T05:55:10.273Z,67.14
2019-03-25T05:57:44.020Z,67.44
2019-03-25T06:00:19.757Z,67.68
2019-03-25T06:02:59.867Z,67.60
2019-03-25T06:05:35.114Z,67.53
2019-03-25T06:08:08.855Z,67.21
2019-03-25T06:10:42.654Z,67.23
2019-03-25T06:13:17.113Z,67.46
2019-03-25T06:15:50.732Z,67.74
2019-03-25T06:18:24.551Z,67.48
2019-03-25T06:20:58.586Z,67.54
2019-03-25T06:23:32.534Z,67.54
2019-03-25T06:26:06.159Z,67.91
2019-03-25T06:28:41.281Z,67.46
2019-03-25T06:31:17.585Z,67.28
2019-03-25T06:33:51.379Z,67.13
2019-03-25T06:36:25.076Z,67.89
2019-03-25T06:38:59.433Z,67.33
2019-03-25T06:41:34.038Z,66.24
2019-03-25T06:44:08.041Z,67.15
2019-03-25T06:46:41.742Z,66.72
2019-03-25T06:49:15.380Z,66.76
2019-03-25T06:51:49.188Z,66.52
2019-03-25T06:54:25.545Z,66.46
2019-03-25T06:56:59.279Z,66.30
2019-03-25T06:59:35.646Z,65.16
2019-03-25T07:02:11.114Z,64.67
2019-03-25T07:04:45.015Z,64.76
2019-03-25T07:07:18.726Z,63.90
2019-03-25T07:09:53.781Z,63.57
2019-03-25T07:12:27.541Z,63.43
2019-03-25T07:15:01.281Z,63.72
2019-03-25T07:17:34.993Z,63.86
2019-03-25T07:20:12.077Z,64.09
2019-03-25T07:22:45.944Z,64.29
2019-03-25T07:25:21.301Z,63.94
2019-03-25T07:27:55.083Z,64.30
2019-03-25T07:30:29.043Z,63.87
2019-03-25T07:33:02.765Z,63.56
2019-03-25T07:35:36.727Z,63.57
2019-03-25T07:38:10.428Z,63.83
2019-03-25T07:40:44.382Z,63.20
2019-03-25T07:43:19.102Z,63.03
2019-03-25T07:45:52.736Z,63.34
2019-03-25T07:48:26.377Z,62.29
2019-03-25T07:51:00.682Z,62.34
2019-03-25T07:53:35.076Z,61.10
2019-03-25T07:56:08.654Z,60.53
2019-03-25T07:58:42.235Z,60.11
2019-03-25T08:01:15.922Z,59.35
2019-03-25T08:03:50.665Z,59.68
2019-03-25T08:06:24.319Z,58.16
2019-03-25T08:09:03.667Z,58.30
2019-03-25T08:11:33.581Z,57.93
2019-03-25T08:14:07.377Z,57.19
2019-03-25T08:16:41.485Z,57.70
2019-03-25T08:19:15.139Z,58.42
2019-03-25T08:21:48.976Z,57.73
2019-03-25T08:24:22.618Z,57.38
2019-03-25T08:26:56.248Z,57.95
2019-03-25T08:29:30.344Z,57.98
2019-03-25T08:32:05.045Z,58.48
2019-03-25T08:34:39.184Z,58.24
2019-03-25T08:37:12.916Z,57.74
2019-03-25T08:39:48.869Z,56.91
2019-03-25T08:42:22.594Z,56.62
2019-03-25T08:44:56.349Z,56.26
2019-03-25T08:47:30.043Z,56.61
2019-03-25T08:50:04.362Z,55.88
2019-03-25T08:52:39.734Z,55.91
2019-03-25T08:55:13.972Z,55.82
2019-03-25T08:57:49.107Z,55.59
2019-03-25T09:00:23.170Z,54.32
2019-03-25T09:02:58.220Z,53.96
2019-03-25T09:05:33.285Z,53.70
2019-03-25T09:08:07.047Z,54.20
2019-03-25T09:10:40.829Z,53.08
2019-03-25T09:13:15.511Z,52.96
2019-03-25T09:15:49.876Z,52.15
2019-03-25T09:18:24.953Z,51.49
2019-03-25T09:20:59.666Z,50.07
2019-03-25T09:23:34.793Z,50.34
2019-03-25T09:26:08.652Z,49.94
2019-03-25T09:28:42.343Z,50.00
2019-03-25T09:31:20.500Z,48.42
2019-03-25T09:33:55.826Z,47.52
2019-03-25T09:36:29.576Z,46.98
2019-03-25T09:39:04.997Z,47.14
2019-03-25T09:41:38.935Z,47.11
2019-03-25T09:44:12.690Z,48.80
2019-03-25T09:46:46.565Z,49.59
2019-03-25T09:49:21.778Z,50.32
2019-03-25T09:51:55.537Z,49.42
2019-03-25T09:54:29.661Z,48.17
2019-03-25T09:57:06.431Z,45.85
2019-03-25T09:59:40.278Z,45.31
2019-03-25T10:02:17.924Z,45.72
2019-03-25T10:04:53.172Z,44.54
2019-03-25T10:07:28.660Z,45.31
2019-03-25T10:10:02.324Z,44.48
2019-03-25T10:12:36.079Z,43.75
2019-03-25T10:15:10.488Z,43.95
2019-03-25T10:17:44.562Z,41.21
2019-03-25T10:20:20.105Z,42.73
2019-03-25T10:22:53.976Z,40.21
2019-03-25T10:25:27.790Z,39.85
2019-03-25T10:28:01.631Z,40.12
2019-03-25T10:30:35.276Z,40.96
2019-03-25T10:33:10.693Z,41.77
2019-03-25T10:35:47.536Z,42.19
2019-03-25T10:38:21.344Z,42.14
2019-03-25T10:40:55.354Z,43.72
2019-03-25T10:43:29.139Z,44.69
2019-03-25T10:46:03.081Z,45.13
2019-03-25T10:48:36.945Z,45.22
2019-03-25T10:51:10.651Z,45.36
2019-03-25T10:53:44.455Z,45.59
2019-03-25T10:56:18.156Z,46.39
2019-03-25T10:58:58.295Z,46.83
2019-03-25T11:01:31.196Z,47.67
2019-03-25T11:04:09.153Z,47.37
2019-03-25T11:06:42.833Z,48.47
2019-03-25T11:09:16.622Z,48.86
2019-03-25T11:11:50.418Z,48.82
2019-03-25T11:14:24.166Z,49.16
2019-03-25T11:16:57.957Z,50.12
2019-03-25T11:19:32.088Z,51.43
2019-03-25T11:22:05.912Z,52.98
2019-03-25T11:24:39.627Z,53.25
2019-03-25T11:27:13.357Z,54.17
2019-03-25T11:29:47.121Z,55.36
2019-03-25T11:32:20.744Z,56.77
2019-03-25T11:34:54.602Z,57.53
2019-03-25T11:37:28.430Z,59.46
2019-03-25T11:40:02.400Z,59.46
2019-03-25T11:42:36.109Z,59.95
2019-03-25T11:45:11.899Z,60.22
2019-03-25T11:47:46.047Z,60.74
2019-03-25T11:50:19.810Z,62.17
2019-03-25T11:52:55.614Z,64.40
2019-03-25T11:55:32.531Z,68.27
2019-03-25T11:58:06.774Z,69.24
2019-03-25T12:00:40.384Z,69.77
2019-03-25T12:03:14.100Z,70.29
2019-03-25T12:05:47.939Z,71.32
2019-03-25T12:08:23.323Z,72.29
2019-03-25T12:10:57.416Z,73.04
2019-03-25T12:13:32.250Z,73.12
2019-03-25T12:16:06.341Z,73.06
2019-03-25T12:18:40.159Z,73.58
2019-03-25T12:21:14.134Z,73.89
2019-03-25T12:23:49.436Z,74.77
2019-03-25T12:26:23.198Z,73.16
2019-03-25T12:28:57.027Z,72.31
2019-03-25T12:31:30.938Z,72.54
2019-03-25T12:34:04.939Z,72.79
2019-03-25T12:36:41.083Z,74.21
2019-03-25T12:39:15.409Z,72.84
2019-03-25T12:41:49.190Z,73.65
2019-03-25T12:44:22.860Z,74.51
2019-03-25T12:46:56.632Z,74.50
2019-03-25T12:49:30.656Z,73.49
2019-03-25T12:52:07.346Z,73.50
2019-03-25T12:54:42.097Z,72.65
2019-03-25T12:57:17.774Z,69.87
2019-03-25T12:59:51.544Z,70.92
2019-03-25T13:02:25.208Z,71.02
2019-03-25T13:04:58.921Z,72.32
2019-03-25T13:07:33.371Z,71.42
2019-03-25T13:10:07.973Z,71.69
2019-03-25T13:12:41.687Z,71.36
2019-03-25T13:15:15.610Z,70.83
2019-03-25T13:17:49.594Z,71.91
2019-03-25T13:23:26.043Z,72.69
2019-03-25T13:26:01.344Z,71.77
2019-03-25T13:28:36.746Z,71.32
2019-03-25T13:31:13.287Z,71.98
2019-03-25T13:33:47.380Z,72.66
2019-03-25T13:36:21.180Z,73.36
2019-03-25T13:38:58.019Z,73.39
2019-03-25T13:41:34.001Z,73.83
2019-03-25T13:44:11.203Z,73.58
2019-03-25T13:46:46.647Z,73.79
2019-03-25T13:49:21.758Z,73.47
2019-03-25T13:51:59.523Z,73.50
2019-03-25T13:54:33.441Z,73.17
2019-03-25T13:57:07.551Z,73.43
2019-03-25T13:59:43.769Z,72.08
2019-03-25T14:02:19.738Z,72.59
2019-03-25T14:05:10.327Z,73.05
2019-03-25T14:07:43.908Z,72.52
2019-03-25T14:10:17.662Z,72.48
2019-03-25T14:12:57.357Z,72.18
2019-03-25T14:15:33.247Z,71.97
2019-03-25T14:18:08.276Z,71.80
2019-03-25T14:20:42.356Z,71.98
2019-03-25T14:23:16.646Z,71.92
2019-03-25T14:25:50.711Z,72.04
2019-03-25T14:29:04.856Z,72.28
2019-03-25T14:32:18.698Z,72.35
2019-03-25T14:34:57.986Z,71.73
2019-03-25T14:37:45.065Z,72.09
2019-03-25T14:40:21.663Z,72.37
2019-03-25T14:43:17.165Z,72.94
2019-03-25T14:46:09.517Z,72.76
2019-03-25T14:48:56.530Z,73.29
2019-03-25T14:51:31.704Z,72.49
2019-03-25T14:54:06.646Z,72.15
2019-03-25T14:56:40.806Z,71.82
2019-03-25T14:59:15.798Z,70.95
2019-03-25T15:01:52.274Z,71.45
2019-03-25T15:04:32.973Z,69.40
2019-03-25T15:07:11.321Z,70.64
2019-03-25T15:09:50.506Z,72.09
2019-03-25T15:12:27.297Z,73.71
2019-03-25T15:15:05.828Z,74.68
2019-03-25T15:17:40.259Z,76.11
2019-03-25T15:20:20.631Z,75.61
2019-03-25T15:22:54.533Z,76.88
2019-03-25T15:25:29.867Z,77.31
2019-03-25T15:28:03.651Z,76.98
2019-03-25T15:30:39.512Z,76.59
2019-03-25T15:33:14.824Z,77.24
2019-03-25T15:35:50.969Z,77.64
2019-03-25T15:38:25.675Z,77.42
2019-03-25T15:40:59.800Z,77.45
2019-03-25T15:43:33.932Z,77.90
2019-03-25T15:46:08.089Z,77.77
2019-03-25T15:48:41.916Z,77.76
2019-03-25T15:51:28.064Z,77.64
2019-03-25T15:54:04.022Z,77.78
2019-03-25T15:56:45.544Z,76.61
2019-03-25T15:59:20.731Z,77.55
2019-03-25T16:02:03.449Z,78.00
2019-03-25T16:04:40.665Z,78.01
2019-03-25T16:07:24.861Z,77.41
2019-03-25T16:10:11.006Z,77.13
2019-03-25T16:12:46.510Z,77.49
2019-03-25T16:15:45.639Z,77.40
2019-03-25T16:18:39.528Z,77.45
2019-03-25T16:21:13.809Z,77.77
2019-03-25T16:23:47.948Z,77.47
2019-03-25T16:26:21.718Z,77.08
2019-03-25T16:28:55.390Z,76.95
2019-03-25T16:31:29.012Z,77.39
2019-03-25T16:34:02.747Z,77.27
2019-03-25T16:36:36.927Z,77.11
2019-03-25T16:39:11.611Z,77.38
2019-03-25T16:41:45.302Z,76.71
2019-03-25T16:44:19.549Z,76.54
2019-03-25T16:46:53.218Z,76.62
2019-03-25T16:49:27.955Z,76.85
2019-03-25T16:52:01.679Z,76.42
2019-03-25T16:54:36.332Z,76.66
2019-03-25T16:57:11.222Z,76.81
2019-03-25T16:59:44.868Z,76.75
2019-03-25T17:02:19.045Z,76.74
2019-03-25T17:04:52.637Z,77.13
2019-03-25T17:07:26.273Z,77.16
2019-03-25T17:10:01.410Z,76.96
2019-03-25T17:12:36.852Z,77.01
2019-03-25T17:15:10.859Z,77.01
2019-03-25T17:17:45.514Z,77.11
2019-03-25T17:20:24.655Z,76.87
2019-03-25T17:22:58.417Z,76.94
2019-03-25T17:25:32.146Z,77.34
2019-03-25T17:28:10.049Z,77.17
2019-03-25T17:30:43.678Z,77.13
2019-03-25T17:33:17.705Z,76.88
2019-03-25T17:35:51.479Z,76.56
2019-03-25T17:38:27.530Z,76.58
2019-03-25T17:41:03.833Z,76.36
2019-03-25T17:43:37.838Z,76.36
2019-03-25T17:46:13.792Z,76.32
2019-03-25T17:48:47.509Z,76.55
2019-03-25T17:51:21.116Z,76.57
2019-03-25T17:53:54.841Z,76.42
2019-03-25T17:56:28.522Z,76.11
2019-03-25T17:59:02.272Z,76.21
2019-03-25T18:01:37.583Z,76.28
2019-03-25T18:04:11.365Z,76.18
2019-03-25T18:06:45.293Z,76.22
2019-03-25T18:09:19.115Z,76.06
2019-03-25T18:11:54.713Z,76.36
2019-03-25T18:14:31.178Z,76.43
2019-03-25T18:17:08.360Z,76.58
2019-03-25T18:19:42.266Z,76.56
2019-03-25T18:22:24.047Z,76.35
2019-03-25T18:25:11.327Z,76.18
2019-03-25T18:27:51.899Z,76.40
2019-03-25T18:30:36.305Z,76.42
2019-03-25T18:33:19.471Z,76.24
2019-03-25T18:35:55.283Z,76.62
2019-03-25T18:38:30.483Z,75.67
2019-03-25T18:41:04.635Z,75.73
2019-03-25T18:43:44.691Z,75.98
2019-03-25T18:46:18.764Z,75.86
2019-03-25T18:48:53.944Z,75.88
2019-03-25T18:51:28.298Z,75.57
2019-03-25T18:54:06.406Z,75.10
2019-03-25T18:56:40.478Z,74.79
2019-03-25T18:59:14.501Z,75.01
2019-03-25T19:01:54.440Z,74.96
2019-03-25T19:04:27.222Z,75.01
2019-03-25T19:07:01.766Z,75.20
2019-03-25T19:09:36.315Z,75.48
2019-03-25T19:12:10.515Z,75.86
2019-03-25T19:14:44.428Z,75.88
2019-03-25T19:17:18.681Z,76.11
2019-03-25T19:19:52.470Z,75.98
2019-03-25T19:22:26.153Z,76.13
2019-03-25T19:24:59.845Z,76.39
2019-03-25T19:27:33.664Z,76.18
2019-03-25T19:30:08.599Z,76.09
2019-03-25T19:32:42.384Z,76.20
2019-03-25T19:35:17.025Z,76.26
2019-03-25T19:37:50.835Z,76.49
2019-03-25T19:40:24.658Z,76.59
2019-03-25T19:42:58.973Z,76.73
2019-03-25T19:45:32.728Z,76.89
2019-03-25T19:48:06.950Z,77.00
2019-03-25T19:50:40.948Z,77.29
2019-03-25T19:53:19.324Z,77.33
2019-03-25T19:55:50.821Z,77.44
2019-03-25T19:58:24.929Z,77.56
2019-03-25T20:01:01.435Z,77.77
2019-03-25T20:03:35.445Z,77.83
2019-03-25T20:06:11.306Z,77.84
2019-03-25T20:08:51.520Z,77.84
2019-03-25T20:11:26.126Z,78.03
2019-03-25T20:14:00.104Z,78.09
2019-03-25T20:16:34.091Z,78.11
2019-03-25T20:19:08.140Z,78.28
2019-03-25T20:21:50.913Z,78.44
2019-03-25T20:24:24.958Z,78.55
2019-03-25T20:26:58.689Z,78.59
2019-03-25T20:29:32.924Z,78.59
2019-03-25T20:32:06.857Z,78.64
2019-03-25T20:34:40.758Z,78.76
2019-03-25T20:37:17.460Z,78.70
2019-03-25T20:39:51.510Z,78.84
2019-03-25T20:42:27.856Z,78.71
2019-03-25T20:45:01.765Z,78.95
2019-03-25T20:47:38.912Z,78.86
2019-03-25T20:50:13.653Z,78.74
2019-03-25T20:52:47.539Z,78.69
2019-03-25T20:55:21.737Z,78.67
2019-03-25T20:57:55.605Z,78.63
2019-03-25T21:00:56.980Z,78.63
2019-03-25T21:03:32.555Z,78.71
2019-03-25T21:06:06.936Z,78.82
2019-03-25T21:08:41.392Z,78.76
2019-03-25T21:11:15.628Z,78.72
2019-03-25T21:13:49.529Z,78.92
2019-03-25T21:16:23.542Z,78.76
2019-03-25T21:18:57.415Z,78.66
2019-03-25T21:21:32.347Z,78.72
2019-03-25T21:24:06.041Z,78.57
2019-03-25T21:26:40.817Z,78.69
2019-03-25T21:29:14.502Z,78.61
2019-03-25T21:31:48.200Z,78.72
2019-03-25T21:34:22.070Z,78.85
2019-03-25T21:36:55.878Z,78.86
2019-03-25T21:39:29.805Z,79.03
2019-03-25T21:42:03.932Z,79.19
2019-03-25T21:44:37.798Z,79.29
2019-03-25T21:47:11.582Z,79.28
2019-03-25T21:49:45.418Z,79.38
2019-03-25T21:52:19.287Z,79.44
2019-03-25T21:54:52.939Z,79.39
2019-03-25T21:57:27.759Z,79.37
2019-03-25T22:00:02.230Z,79.39
2019-03-25T22:02:36.981Z,79.30
2019-03-25T22:05:11.480Z,79.48
2019-03-25T22:07:46.472Z,79.54
2019-03-25T22:10:20.496Z,79.65
2019-03-25T22:12:57.027Z,79.63
2019-03-25T22:15:30.662Z,79.80
2019-03-25T22:18:05.125Z,79.94
2019-03-25T22:20:42.679Z,79.97
2019-03-25T22:23:17.881Z,79.94
2019-03-25T22:25:53.371Z,80.09
2019-03-25T22:28:27.353Z,80.21
2019-03-25T22:31:06.215Z,80.22
2019-03-25T22:33:41.631Z,80.21
2019-03-25T22:36:15.459Z,80.27
2019-03-25T22:38:49.119Z,80.25
2019-03-25T22:41:22.819Z,80.24
2019-03-25T22:43:56.473Z,80.31
2019-03-25T22:46:30.072Z,80.37
2019-03-25T22:49:03.976Z,80.46
2019-03-25T22:51:37.605Z,80.54
2019-03-25T22:54:11.415Z,80.57
2019-03-25T22:56:45.184Z,80.61
2019-03-25T22:59:18.834Z,80.65
2019-03-25T23:01:52.543Z,80.67
2019-03-25T23:04:26.367Z,80.73
2019-03-25T23:07:00.062Z,80.64
2019-03-25T23:09:33.928Z,80.72
2019-03-25T23:12:09.172Z,80.85
2019-03-25T23:14:42.989Z,80.97
2019-03-25T23:17:16.726Z,81.06
2019-03-25T23:19:50.340Z,80.99
2019-03-25T23:22:23.976Z,80.94
2019-03-25T23:24:57.844Z,81.14
2019-03-25T23:27:31.435Z,81.20
2019-03-25T23:30:05.567Z,81.19
2019-03-25T23:32:39.291Z,81.18
2019-03-25T23:35:12.963Z,81.27
2019-03-25T23:37:46.598Z,81.22
2019-03-25T23:40:20.331Z,81.29
2019-03-25T23:42:54.064Z,81.29
2019-03-25T23:45:28.841Z,81.18
2019-03-25T23:48:02.638Z,81.04
2019-03-25T23:50:36.489Z,80.99
2019-03-25T23:53:10.206Z,80.93
2019-03-25T23:55:43.899Z,80.92
2019-03-25T23:58:17.509Z,80.79
